Decoded Metar for SCIE (CONCEPCION in CHILE) (IATA:CCP) | Meteo·Mobile Aviation Weather
aviador You're here:

SCIE Decoded Metar

CONCEPCION in CHILE
Report Time2018-08-19 14:00:00
UTC Time2018-08-19 14:06:20
Flight Rules vfr VFR
Wind170° at 08 kt
W.Decomp.*RWY 20: 6.5 kt HW 4.7 kt LCW
W.Rank170° ranks 13
Current wind is above 170° avg. (3.9)
Visibility9999 m
Phenomena:N/A
Clouds:N/A
Expected CloudBase > 5,200 ft AGL from Temp-Dew spread
CeilingNone
Temp10°C (ISA -5)
Dew Point-3°C (40% RH)
AAT4.7°C
QNH1026 hPa
Density Alt-902 ft
Elevation52 ft
Report Wrong Elevation
Raw Report
METAR SCIE 191400Z 17008KT 100V220 CAVOK 10/M03 Q1026=

Extra information for SCIE:More info

Metar Taf Metar & Taf Last 4 Metars F.Rules Stats Wind Profile Meteogram Temp Stats Airport Information Weather charts Add Link Nearby VenuesMetar ALERT Operation Metar Decoded Social comments